sensor_id;sensor_type;location;lat;lon;timestamp;P1;durP1;ratioP1;P2;durP2;ratioP2
6095;SDS011;25081;42.698;23.298;2023-05-02T00:01:21;6.27;;;5.20;;
6095;SDS011;25081;42.698;23.298;2023-05-02T00:03:31;5.47;;;4.60;;
6095;SDS011;25081;42.698;23.298;2023-05-02T00:05:42;6.10;;;4.90;;
6095;SDS011;25081;42.698;23.298;2023-05-02T00:07:52;5.97;;;5.10;;
6095;SDS011;25081;42.698;23.298;2023-05-02T00:10:07;6.63;;;5.13;;
6095;SDS011;25081;42.698;23.298;2023-05-02T00:12:18;6.77;;;4.33;;
6095;SDS011;25081;42.698;23.298;2023-05-02T00:14:29;5.73;;;4.70;;
6095;SDS011;25081;42.698;23.298;2023-05-02T00:16:39;7.30;;;5.40;;
6095;SDS011;25081;42.698;23.298;2023-05-02T00:18:50;5.87;;;4.90;;
6095;SDS011;25081;42.698;23.298;2023-05-02T00:21:01;7.00;;;4.90;;
6095;SDS011;25081;42.698;23.298;2023-05-02T00:23:11;5.57;;;4.47;;
6095;SDS011;25081;42.698;23.298;2023-05-02T00:25:22;6.67;;;4.93;;
6095;SDS011;25081;42.698;23.298;2023-05-02T00:27:33;4.33;;;3.93;;
6095;SDS011;25081;42.698;23.298;2023-05-02T00:29:43;6.40;;;4.90;;
6095;SDS011;25081;42.698;23.298;2023-05-02T00:31:54;5.47;;;4.90;;
6095;SDS011;25081;42.698;23.298;2023-05-02T00:34:05;5.93;;;4.80;;
6095;SDS011;25081;42.698;23.298;2023-05-02T00:36:16;5.90;;;4.70;;
6095;SDS011;25081;42.698;23.298;2023-05-02T00:38:26;5.53;;;4.20;;
6095;SDS011;25081;42.698;23.298;2023-05-02T00:40:43;2.87;;;2.57;;
6095;SDS011;25081;42.698;23.298;2023-05-02T00:42:54;6.03;;;4.77;;
6095;SDS011;25081;42.698;23.298;2023-05-02T00:45:06;6.07;;;3.90;;
6095;SDS011;25081;42.698;23.298;2023-05-02T00:47:17;5.10;;;3.72;;
6095;SDS011;25081;42.698;23.298;2023-05-02T00:49:27;6.08;;;4.60;;
6095;SDS011;25081;42.698;23.298;2023-05-02T00:51:39;4.90;;;4.00;;
6095;SDS011;25081;42.698;23.298;2023-05-02T00:53:49;5.10;;;3.58;;
6095;SDS011;25081;42.698;23.298;2023-05-02T00:56:00;6.10;;;5.40;;
6095;SDS011;25081;42.698;23.298;2023-05-02T00:58:11;4.50;;;3.90;;
6095;SDS011;25081;42.698;23.298;2023-05-02T01:00:21;5.20;;;4.00;;
6095;SDS011;25081;42.698;23.298;2023-05-02T01:02:33;5.22;;;4.47;;
6095;SDS011;25081;42.698;23.298;2023-05-02T01:04:46;3.70;;;3.35;;
6095;SDS011;25081;42.698;23.298;2023-05-02T01:06:58;5.17;;;4.25;;
6095;SDS011;25081;42.698;23.298;2023-05-02T01:09:14;4.10;;;3.70;;
6095;SDS011;25081;42.698;23.298;2023-05-02T01:11:27;5.70;;;4.70;;
6095;SDS011;25081;42.698;23.298;2023-05-02T01:13:37;5.47;;;4.97;;
6095;SDS011;25081;42.698;23.298;2023-05-02T01:15:48;5.97;;;4.60;;
6095;SDS011;25081;42.698;23.298;2023-05-02T01:17:59;7.20;;;5.00;;
6095;SDS011;25081;42.698;23.298;2023-05-02T01:20:10;5.80;;;5.20;;
6095;SDS011;25081;42.698;23.298;2023-05-02T01:22:21;7.50;;;5.67;;
6095;SDS011;25081;42.698;23.298;2023-05-02T01:24:34;3.00;;;2.63;;
6095;SDS011;25081;42.698;23.298;2023-05-02T01:26:53;6.30;;;5.30;;
6095;SDS011;25081;42.698;23.298;2023-05-02T01:28:58;7.00;;;5.30;;
6095;SDS011;25081;42.698;23.298;2023-05-02T01:31:09;7.10;;;5.00;;
6095;SDS011;25081;42.698;23.298;2023-05-02T01:33:19;5.67;;;5.17;;
6095;SDS011;25081;42.698;23.298;2023-05-02T01:35:33;4.90;;;3.87;;
6095;SDS011;25081;42.698;23.298;2023-05-02T01:37:44;8.47;;;4.90;;
6095;SDS011;25081;42.698;23.298;2023-05-02T01:39:54;4.77;;;3.63;;
6095;SDS011;25081;42.698;23.298;2023-05-02T01:42:05;4.63;;;3.73;;
6095;SDS011;25081;42.698;23.298;2023-05-02T01:44:15;6.37;;;5.40;;
6095;SDS011;25081;42.698;23.298;2023-05-02T01:46:26;5.43;;;4.93;;
6095;SDS011;25081;42.698;23.298;2023-05-02T01:48:36;7.80;;;5.50;;
6095;SDS011;25081;42.698;23.298;2023-05-02T01:50:47;6.30;;;5.27;;
6095;SDS011;25081;42.698;23.298;2023-05-02T01:52:57;6.70;;;5.70;;
6095;SDS011;25081;42.698;23.298;2023-05-02T01:55:10;5.60;;;4.20;;
6095;SDS011;25081;42.698;23.298;2023-05-02T01:57:20;5.17;;;4.67;;
6095;SDS011;25081;42.698;23.298;2023-05-02T01:59:30;4.63;;;4.00;;
6095;SDS011;25081;42.698;23.298;2023-05-02T02:01:41;6.20;;;5.10;;
6095;SDS011;25081;42.698;23.298;2023-05-02T02:03:51;6.23;;;4.87;;
6095;SDS011;25081;42.698;23.298;2023-05-02T02:06:03;6.37;;;5.77;;
6095;SDS011;25081;42.698;23.298;2023-05-02T02:08:14;6.78;;;5.15;;
6095;SDS011;25081;42.698;23.298;2023-05-02T02:10:24;3.10;;;2.80;;
6095;SDS011;25081;42.698;23.298;2023-05-02T02:12:37;5.90;;;4.80;;
6095;SDS011;25081;42.698;23.298;2023-05-02T02:14:47;5.55;;;4.35;;
6095;SDS011;25081;42.698;23.298;2023-05-02T02:16:57;6.50;;;2.40;;
6095;SDS011;25081;42.698;23.298;2023-05-02T02:19:09;6.37;;;5.50;;
6095;SDS011;25081;42.698;23.298;2023-05-02T02:21:18;6.97;;;3.33;;
6095;SDS011;25081;42.698;23.298;2023-05-02T02:23:28;8.70;;;4.10;;
6095;SDS011;25081;42.698;23.298;2023-05-02T02:25:39;5.85;;;4.45;;
6095;SDS011;25081;42.698;23.298;2023-05-02T02:27:49;4.42;;;3.75;;
6095;SDS011;25081;42.698;23.298;2023-05-02T02:30:00;4.00;;;3.15;;
6095;SDS011;25081;42.698;23.298;2023-05-02T02:32:11;5.20;;;4.00;;
6095;SDS011;25081;42.698;23.298;2023-05-02T02:34:22;7.50;;;6.20;;
6095;SDS011;25081;42.698;23.298;2023-05-02T02:36:35;15.10;;;5.95;;
6095;SDS011;25081;42.698;23.298;2023-05-02T02:38:44;3.30;;;2.98;;
6095;SDS011;25081;42.698;23.298;2023-05-02T02:40:56;7.87;;;4.97;;
6095;SDS011;25081;42.698;23.298;2023-05-02T02:43:07;6.80;;;5.60;;
6095;SDS011;25081;42.698;23.298;2023-05-02T02:45:21;6.28;;;4.47;;
6095;SDS011;25081;42.698;23.298;2023-05-02T02:47:34;4.40;;;3.33;;
6095;SDS011;25081;42.698;23.298;2023-05-02T02:49:46;6.80;;;4.80;;
6095;SDS011;25081;42.698;23.298;2023-05-02T02:51:59;5.80;;;5.22;;
6095;SDS011;25081;42.698;23.298;2023-05-02T02:54:12;5.53;;;5.03;;
6095;SDS011;25081;42.698;23.298;2023-05-02T02:56:25;4.83;;;3.67;;
6095;SDS011;25081;42.698;23.298;2023-05-02T02:58:38;4.72;;;3.85;;
6095;SDS011;25081;42.698;23.298;2023-05-02T03:00:48;5.97;;;3.42;;
6095;SDS011;25081;42.698;23.298;2023-05-02T03:02:58;5.85;;;2.47;;
6095;SDS011;25081;42.698;23.298;2023-05-02T03:05:09;5.87;;;4.97;;
6095;SDS011;25081;42.698;23.298;2023-05-02T03:07:19;7.85;;;5.78;;
6095;SDS011;25081;42.698;23.298;2023-05-02T03:09:40;6.25;;;2.77;;
6095;SDS011;25081;42.698;23.298;2023-05-02T03:11:50;4.28;;;3.20;;
6095;SDS011;25081;42.698;23.298;2023-05-02T03:14:01;7.80;;;5.53;;
6095;SDS011;25081;42.698;23.298;2023-05-02T03:16:31;4.78;;;3.17;;
6095;SDS011;25081;42.698;23.298;2023-05-02T03:18:42;5.00;;;3.12;;
6095;SDS011;25081;42.698;23.298;2023-05-02T03:20:52;4.27;;;3.53;;
6095;SDS011;25081;42.698;23.298;2023-05-02T03:23:03;6.05;;;5.45;;
6095;SDS011;25081;42.698;23.298;2023-05-02T03:25:14;4.53;;;3.37;;
6095;SDS011;25081;42.698;23.298;2023-05-02T03:27:24;5.35;;;3.92;;
6095;SDS011;25081;42.698;23.298;2023-05-02T03:29:35;8.30;;;5.97;;
6095;SDS011;25081;42.698;23.298;2023-05-02T03:31:45;6.57;;;5.40;;
6095;SDS011;25081;42.698;23.298;2023-05-02T03:33:56;6.58;;;5.28;;
6095;SDS011;25081;42.698;23.298;2023-05-02T03:36:07;5.75;;;5.15;;
6095;SDS011;25081;42.698;23.298;2023-05-02T03:38:18;5.03;;;3.83;;
6095;SDS011;25081;42.698;23.298;2023-05-02T03:40:28;4.12;;;3.55;;
6095;SDS011;25081;42.698;23.298;2023-05-02T03:42:41;6.05;;;4.25;;
6095;SDS011;25081;42.698;23.298;2023-05-02T03:44:52;3.33;;;2.67;;
6095;SDS011;25081;42.698;23.298;2023-05-02T03:47:02;4.97;;;3.95;;
6095;SDS011;25081;42.698;23.298;2023-05-02T03:49:13;10.53;;;6.17;;
6095;SDS011;25081;42.698;23.298;2023-05-02T03:51:23;5.97;;;4.92;;
6095;SDS011;25081;42.698;23.298;2023-05-02T03:53:34;7.28;;;5.62;;
6095;SDS011;25081;42.698;23.298;2023-05-02T03:55:45;9.18;;;5.62;;
6095;SDS011;25081;42.698;23.298;2023-05-02T03:57:55;5.45;;;4.67;;
6095;SDS011;25081;42.698;23.298;2023-05-02T04:00:07;4.75;;;4.17;;
6095;SDS011;25081;42.698;23.298;2023-05-02T04:02:19;12.05;;;6.67;;
6095;SDS011;25081;42.698;23.298;2023-05-02T04:04:29;8.60;;;6.67;;
6095;SDS011;25081;42.698;23.298;2023-05-02T04:06:41;10.45;;;5.90;;
6095;SDS011;25081;42.698;23.298;2023-05-02T04:08:52;6.80;;;5.55;;
6095;SDS011;25081;42.698;23.298;2023-05-02T04:11:02;6.97;;;5.63;;
6095;SDS011;25081;42.698;23.298;2023-05-02T04:13:13;7.40;;;5.87;;
6095;SDS011;25081;42.698;23.298;2023-05-02T04:15:23;3.87;;;3.07;;
6095;SDS011;25081;42.698;23.298;2023-05-02T04:17:34;8.50;;;6.00;;
6095;SDS011;25081;42.698;23.298;2023-05-02T04:19:45;10.05;;;5.62;;
6095;SDS011;25081;42.698;23.298;2023-05-02T04:21:56;7.35;;;5.47;;
6095;SDS011;25081;42.698;23.298;2023-05-02T04:24:06;8.18;;;5.87;;
6095;SDS011;25081;42.698;23.298;2023-05-02T04:26:17;5.90;;;4.07;;
6095;SDS011;25081;42.698;23.298;2023-05-02T04:28:27;7.08;;;5.60;;
6095;SDS011;25081;42.698;23.298;2023-05-02T04:30:38;6.35;;;5.75;;
6095;SDS011;25081;42.698;23.298;2023-05-02T04:32:48;16.03;;;6.10;;
6095;SDS011;25081;42.698;23.298;2023-05-02T04:34:59;7.40;;;5.73;;
6095;SDS011;25081;42.698;23.298;2023-05-02T04:37:09;13.13;;;5.00;;
6095;SDS011;25081;42.698;23.298;2023-05-02T04:39:20;8.90;;;6.30;;
6095;SDS011;25081;42.698;23.298;2023-05-02T04:41:30;7.37;;;5.97;;
6095;SDS011;25081;42.698;23.298;2023-05-02T04:43:41;7.50;;;5.10;;
6095;SDS011;25081;42.698;23.298;2023-05-02T04:45:51;9.50;;;5.80;;
6095;SDS011;25081;42.698;23.298;2023-05-02T04:48:03;7.00;;;5.53;;
6095;SDS011;25081;42.698;23.298;2023-05-02T04:50:14;6.57;;;4.77;;
6095;SDS011;25081;42.698;23.298;2023-05-02T04:52:25;5.60;;;3.53;;
6095;SDS011;25081;42.698;23.298;2023-05-02T04:54:36;7.53;;;5.80;;
6095;SDS011;25081;42.698;23.298;2023-05-02T04:56:46;6.57;;;4.43;;
6095;SDS011;25081;42.698;23.298;2023-05-02T04:58:57;7.03;;;4.67;;
6095;SDS011;25081;42.698;23.298;2023-05-02T05:01:08;6.13;;;3.33;;
6095;SDS011;25081;42.698;23.298;2023-05-02T05:03:18;4.57;;;4.07;;
6095;SDS011;25081;42.698;23.298;2023-05-02T05:05:28;4.53;;;3.80;;
6095;SDS011;25081;42.698;23.298;2023-05-02T05:07:39;2.87;;;2.53;;
6095;SDS011;25081;42.698;23.298;2023-05-02T05:09:50;3.53;;;2.70;;
6095;SDS011;25081;42.698;23.298;2023-05-02T05:12:00;7.37;;;5.13;;
6095;SDS011;25081;42.698;23.298;2023-05-02T05:14:11;6.83;;;4.87;;
6095;SDS011;25081;42.698;23.298;2023-05-02T05:16:22;6.27;;;4.63;;
6095;SDS011;25081;42.698;23.298;2023-05-02T05:18:32;4.27;;;3.07;;
6095;SDS011;25081;42.698;23.298;2023-05-02T05:20:43;6.80;;;3.73;;
6095;SDS011;25081;42.698;23.298;2023-05-02T05:22:54;5.08;;;3.95;;
6095;SDS011;25081;42.698;23.298;2023-05-02T05:25:06;6.60;;;4.80;;
6095;SDS011;25081;42.698;23.298;2023-05-02T05:27:17;4.70;;;3.47;;
6095;SDS011;25081;42.698;23.298;2023-05-02T05:29:29;4.67;;;3.23;;
6095;SDS011;25081;42.698;23.298;2023-05-02T05:31:40;7.03;;;4.30;;
6095;SDS011;25081;42.698;23.298;2023-05-02T05:33:51;5.57;;;3.43;;
6095;SDS011;25081;42.698;23.298;2023-05-02T05:36:06;6.33;;;3.72;;
6095;SDS011;25081;42.698;23.298;2023-05-02T05:38:16;4.70;;;3.10;;
6095;SDS011;25081;42.698;23.298;2023-05-02T05:40:27;6.70;;;3.80;;
6095;SDS011;25081;42.698;23.298;2023-05-02T05:42:37;3.37;;;2.53;;
6095;SDS011;25081;42.698;23.298;2023-05-02T05:44:48;6.10;;;4.53;;
6095;SDS011;25081;42.698;23.298;2023-05-02T05:46:58;4.10;;;2.70;;
6095;SDS011;25081;42.698;23.298;2023-05-02T05:49:09;6.90;;;4.47;;
6095;SDS011;25081;42.698;23.298;2023-05-02T05:51:19;6.93;;;4.20;;
6095;SDS011;25081;42.698;23.298;2023-05-02T05:53:30;7.90;;;4.73;;
6095;SDS011;25081;42.698;23.298;2023-05-02T05:55:40;5.33;;;3.67;;
6095;SDS011;25081;42.698;23.298;2023-05-02T05:57:51;5.60;;;4.50;;
6095;SDS011;25081;42.698;23.298;2023-05-02T06:00:02;5.70;;;4.33;;
6095;SDS011;25081;42.698;23.298;2023-05-02T06:02:13;3.60;;;2.93;;
6095;SDS011;25081;42.698;23.298;2023-05-02T06:04:24;6.50;;;3.50;;
6095;SDS011;25081;42.698;23.298;2023-05-02T06:06:35;4.73;;;3.40;;
6095;SDS011;25081;42.698;23.298;2023-05-02T06:08:46;4.30;;;3.03;;
6095;SDS011;25081;42.698;23.298;2023-05-02T06:10:56;6.12;;;4.65;;
6095;SDS011;25081;42.698;23.298;2023-05-02T06:13:07;2.90;;;2.37;;
6095;SDS011;25081;42.698;23.298;2023-05-02T06:15:18;5.40;;;4.20;;
6095;SDS011;25081;42.698;23.298;2023-05-02T06:17:28;4.93;;;3.67;;
6095;SDS011;25081;42.698;23.298;2023-05-02T06:19:39;4.00;;;3.50;;
6095;SDS011;25081;42.698;23.298;2023-05-02T06:21:49;3.87;;;3.47;;
6095;SDS011;25081;42.698;23.298;2023-05-02T06:24:00;3.37;;;3.07;;
6095;SDS011;25081;42.698;23.298;2023-05-02T06:26:10;3.13;;;2.83;;
6095;SDS011;25081;42.698;23.298;2023-05-02T06:28:21;5.50;;;4.67;;
6095;SDS011;25081;42.698;23.298;2023-05-02T06:30:32;4.73;;;3.50;;
6095;SDS011;25081;42.698;23.298;2023-05-02T06:32:42;3.40;;;3.00;;
6095;SDS011;25081;42.698;23.298;2023-05-02T06:34:53;7.10;;;4.42;;
6095;SDS011;25081;42.698;23.298;2023-05-02T06:37:04;6.43;;;4.10;;
6095;SDS011;25081;42.698;23.298;2023-05-02T06:39:14;3.97;;;3.50;;
6095;SDS011;25081;42.698;23.298;2023-05-02T06:41:25;5.00;;;3.90;;
6095;SDS011;25081;42.698;23.298;2023-05-02T06:43:35;5.17;;;4.00;;
6095;SDS011;25081;42.698;23.298;2023-05-02T06:45:46;4.97;;;4.33;;
6095;SDS011;25081;42.698;23.298;2023-05-02T06:47:56;6.10;;;4.03;;
6095;SDS011;25081;42.698;23.298;2023-05-02T06:50:08;5.03;;;3.30;;
6095;SDS011;25081;42.698;23.298;2023-05-02T06:52:20;4.00;;;2.70;;
6095;SDS011;25081;42.698;23.298;2023-05-02T06:54:30;3.20;;;2.57;;
6095;SDS011;25081;42.698;23.298;2023-05-02T06:56:41;12.97;;;5.07;;
6095;SDS011;25081;42.698;23.298;2023-05-02T06:58:51;6.27;;;4.00;;
6095;SDS011;25081;42.698;23.298;2023-05-02T07:01:02;8.47;;;4.47;;
6095;SDS011;25081;42.698;23.298;2023-05-02T07:03:13;5.40;;;3.93;;
6095;SDS011;25081;42.698;23.298;2023-05-02T07:05:23;3.80;;;2.47;;
6095;SDS011;25081;42.698;23.298;2023-05-02T07:07:34;4.23;;;3.83;;
6095;SDS011;25081;42.698;23.298;2023-05-02T07:09:45;6.33;;;4.03;;
6095;SDS011;25081;42.698;23.298;2023-05-02T07:11:55;4.13;;;3.70;;
6095;SDS011;25081;42.698;23.298;2023-05-02T07:14:06;3.37;;;2.90;;
6095;SDS011;25081;42.698;23.298;2023-05-02T07:16:16;4.50;;;3.47;;
6095;SDS011;25081;42.698;23.298;2023-05-02T07:18:27;10.80;;;4.13;;
6095;SDS011;25081;42.698;23.298;2023-05-02T07:20:38;4.97;;;3.93;;
6095;SDS011;25081;42.698;23.298;2023-05-02T07:22:48;2.93;;;1.87;;
6095;SDS011;25081;42.698;23.298;2023-05-02T07:24:59;2.53;;;2.00;;
6095;SDS011;25081;42.698;23.298;2023-05-02T07:27:10;6.80;;;4.00;;
6095;SDS011;25081;42.698;23.298;2023-05-02T07:29:20;4.30;;;2.87;;
6095;SDS011;25081;42.698;23.298;2023-05-02T07:31:31;4.03;;;3.30;;
6095;SDS011;25081;42.698;23.298;2023-05-02T07:33:41;6.00;;;3.90;;
6095;SDS011;25081;42.698;23.298;2023-05-02T07:35:52;4.67;;;2.83;;
6095;SDS011;25081;42.698;23.298;2023-05-02T07:38:03;4.70;;;3.90;;
6095;SDS011;25081;42.698;23.298;2023-05-02T07:40:14;5.97;;;3.40;;
6095;SDS011;25081;42.698;23.298;2023-05-02T07:42:28;4.20;;;3.30;;
6095;SDS011;25081;42.698;23.298;2023-05-02T07:44:39;5.50;;;3.93;;
6095;SDS011;25081;42.698;23.298;2023-05-02T07:46:49;6.50;;;3.97;;
6095;SDS011;25081;42.698;23.298;2023-05-02T07:49:00;4.43;;;3.37;;
6095;SDS011;25081;42.698;23.298;2023-05-02T07:51:10;5.47;;;3.70;;
6095;SDS011;25081;42.698;23.298;2023-05-02T07:53:21;4.73;;;3.63;;
6095;SDS011;25081;42.698;23.298;2023-05-02T07:55:31;4.13;;;2.87;;
6095;SDS011;25081;42.698;23.298;2023-05-02T07:57:42;4.47;;;3.63;;
6095;SDS011;25081;42.698;23.298;2023-05-02T07:59:52;4.50;;;2.97;;
6095;SDS011;25081;42.698;23.298;2023-05-02T08:04:31;6.50;;;3.20;;
6095;SDS011;25081;42.698;23.298;2023-05-02T08:06:44;4.53;;;3.20;;
6095;SDS011;25081;42.698;23.298;2023-05-02T08:08:54;4.60;;;2.83;;
6095;SDS011;25081;42.698;23.298;2023-05-02T08:11:05;4.53;;;3.23;;
6095;SDS011;25081;42.698;23.298;2023-05-02T08:13:15;4.50;;;3.00;;
6095;SDS011;25081;42.698;23.298;2023-05-02T08:15:26;6.50;;;2.97;;
6095;SDS011;25081;42.698;23.298;2023-05-02T08:17:37;4.13;;;2.07;;
6095;SDS011;25081;42.698;23.298;2023-05-02T08:19:47;6.27;;;2.93;;
6095;SDS011;25081;42.698;23.298;2023-05-02T08:21:58;4.20;;;2.80;;
6095;SDS011;25081;42.698;23.298;2023-05-02T08:24:08;5.10;;;3.40;;
6095;SDS011;25081;42.698;23.298;2023-05-02T08:26:19;4.67;;;3.50;;
6095;SDS011;25081;42.698;23.298;2023-05-02T08:28:30;7.17;;;3.20;;
6095;SDS011;25081;42.698;23.298;2023-05-02T08:30:40;4.07;;;3.03;;
6095;SDS011;25081;42.698;23.298;2023-05-02T08:32:51;3.97;;;2.70;;
6095;SDS011;25081;42.698;23.298;2023-05-02T08:35:01;4.13;;;2.50;;
6095;SDS011;25081;42.698;23.298;2023-05-02T08:37:12;5.00;;;3.47;;
6095;SDS011;25081;42.698;23.298;2023-05-02T08:39:23;7.83;;;3.07;;
6095;SDS011;25081;42.698;23.298;2023-05-02T08:41:34;4.10;;;2.97;;
6095;SDS011;25081;42.698;23.298;2023-05-02T08:43:44;3.77;;;3.10;;
6095;SDS011;25081;42.698;23.298;2023-05-02T08:45:55;4.30;;;3.10;;
6095;SDS011;25081;42.698;23.298;2023-05-02T08:48:07;4.17;;;2.57;;
6095;SDS011;25081;42.698;23.298;2023-05-02T08:50:17;3.90;;;3.20;;
6095;SDS011;25081;42.698;23.298;2023-05-02T08:52:28;5.30;;;3.40;;
6095;SDS011;25081;42.698;23.298;2023-05-02T08:54:38;4.57;;;3.00;;
6095;SDS011;25081;42.698;23.298;2023-05-02T08:56:49;4.10;;;2.90;;
6095;SDS011;25081;42.698;23.298;2023-05-02T08:58:59;3.40;;;2.80;;
6095;SDS011;25081;42.698;23.298;2023-05-02T09:01:12;3.50;;;3.17;;
6095;SDS011;25081;42.698;23.298;2023-05-02T09:03:22;4.30;;;3.10;;
6095;SDS011;25081;42.698;23.298;2023-05-02T09:05:34;3.60;;;3.27;;
6095;SDS011;25081;42.698;23.298;2023-05-02T09:07:45;4.20;;;3.37;;
6095;SDS011;25081;42.698;23.298;2023-05-02T09:09:55;3.47;;;2.70;;
6095;SDS011;25081;42.698;23.298;2023-05-02T09:12:05;7.03;;;2.93;;
6095;SDS011;25081;42.698;23.298;2023-05-02T09:14:16;4.17;;;2.97;;
6095;SDS011;25081;42.698;23.298;2023-05-02T09:16:26;3.47;;;3.17;;
6095;SDS011;25081;42.698;23.298;2023-05-02T09:18:37;3.53;;;2.40;;
6095;SDS011;25081;42.698;23.298;2023-05-02T09:20:47;5.70;;;3.20;;
6095;SDS011;25081;42.698;23.298;2023-05-02T09:22:58;5.37;;;3.57;;
6095;SDS011;25081;42.698;23.298;2023-05-02T09:25:09;2.90;;;2.50;;
6095;SDS011;25081;42.698;23.298;2023-05-02T09:27:20;4.40;;;3.30;;
6095;SDS011;25081;42.698;23.298;2023-05-02T09:29:31;6.20;;;2.37;;
6095;SDS011;25081;42.698;23.298;2023-05-02T09:31:43;5.90;;;3.00;;
6095;SDS011;25081;42.698;23.298;2023-05-02T09:33:54;4.50;;;3.17;;
6095;SDS011;25081;42.698;23.298;2023-05-02T09:36:05;4.50;;;2.30;;
6095;SDS011;25081;42.698;23.298;2023-05-02T09:38:18;2.93;;;2.20;;
6095;SDS011;25081;42.698;23.298;2023-05-02T09:40:28;3.63;;;3.00;;
6095;SDS011;25081;42.698;23.298;2023-05-02T09:42:38;6.57;;;3.87;;
6095;SDS011;25081;42.698;23.298;2023-05-02T09:44:49;4.67;;;3.00;;
6095;SDS011;25081;42.698;23.298;2023-05-02T09:46:59;4.60;;;3.40;;
6095;SDS011;25081;42.698;23.298;2023-05-02T09:49:10;3.90;;;2.60;;
6095;SDS011;25081;42.698;23.298;2023-05-02T09:51:21;4.10;;;2.60;;
6095;SDS011;25081;42.698;23.298;2023-05-02T09:53:31;4.20;;;2.67;;
6095;SDS011;25081;42.698;23.298;2023-05-02T09:55:42;2.90;;;2.50;;
6095;SDS011;25081;42.698;23.298;2023-05-02T09:57:52;6.83;;;3.03;;
6095;SDS011;25081;42.698;23.298;2023-05-02T10:00:03;11.80;;;3.70;;
6095;SDS011;25081;42.698;23.298;2023-05-02T10:02:15;7.03;;;2.57;;
6095;SDS011;25081;42.698;23.298;2023-05-02T10:04:26;5.07;;;3.03;;
6095;SDS011;25081;42.698;23.298;2023-05-02T10:06:36;3.87;;;2.70;;
6095;SDS011;25081;42.698;23.298;2023-05-02T10:08:47;4.07;;;2.97;;
6095;SDS011;25081;42.698;23.298;2023-05-02T10:10:58;5.10;;;2.87;;
6095;SDS011;25081;42.698;23.298;2023-05-02T10:13:11;4.10;;;3.10;;
6095;SDS011;25081;42.698;23.298;2023-05-02T10:15:22;4.13;;;2.60;;
6095;SDS011;25081;42.698;23.298;2023-05-02T10:17:34;5.07;;;2.93;;
6095;SDS011;25081;42.698;23.298;2023-05-02T10:19:44;5.73;;;3.90;;
6095;SDS011;25081;42.698;23.298;2023-05-02T10:21:54;3.27;;;2.53;;
6095;SDS011;25081;42.698;23.298;2023-05-02T10:24:05;6.97;;;2.90;;
6095;SDS011;25081;42.698;23.298;2023-05-02T10:26:16;7.43;;;3.53;;
6095;SDS011;25081;42.698;23.298;2023-05-02T10:28:26;4.10;;;2.77;;
6095;SDS011;25081;42.698;23.298;2023-05-02T10:30:38;3.83;;;3.00;;
6095;SDS011;25081;42.698;23.298;2023-05-02T10:32:48;4.40;;;2.60;;
6095;SDS011;25081;42.698;23.298;2023-05-02T10:35:01;7.73;;;2.87;;
6095;SDS011;25081;42.698;23.298;2023-05-02T10:37:11;3.40;;;2.70;;
6095;SDS011;25081;42.698;23.298;2023-05-02T10:39:22;3.50;;;2.90;;
6095;SDS011;25081;42.698;23.298;2023-05-02T10:41:32;4.10;;;2.83;;
6095;SDS011;25081;42.698;23.298;2023-05-02T10:43:46;3.80;;;2.87;;
6095;SDS011;25081;42.698;23.298;2023-05-02T10:45:56;3.47;;;2.47;;
6095;SDS011;25081;42.698;23.298;2023-05-02T10:48:17;4.97;;;2.67;;
6095;SDS011;25081;42.698;23.298;2023-05-02T10:50:31;3.60;;;1.93;;
6095;SDS011;25081;42.698;23.298;2023-05-02T10:52:51;3.00;;;2.30;;
6095;SDS011;25081;42.698;23.298;2023-05-02T10:55:15;3.10;;;2.70;;
6095;SDS011;25081;42.698;23.298;2023-05-02T10:57:26;7.50;;;3.20;;
6095;SDS011;25081;42.698;23.298;2023-05-02T10:59:36;4.60;;;2.60;;
6095;SDS011;25081;42.698;23.298;2023-05-02T11:01:47;3.93;;;2.60;;
6095;SDS011;25081;42.698;23.298;2023-05-02T11:03:58;3.10;;;2.40;;
6095;SDS011;25081;42.698;23.298;2023-05-02T11:06:08;3.97;;;2.87;;
6095;SDS011;25081;42.698;23.298;2023-05-02T11:08:31;3.03;;;2.37;;
6095;SDS011;25081;42.698;23.298;2023-05-02T11:10:42;11.10;;;2.80;;
6095;SDS011;25081;42.698;23.298;2023-05-02T11:12:53;3.50;;;2.40;;
6095;SDS011;25081;42.698;23.298;2023-05-02T11:15:04;4.43;;;2.87;;
6095;SDS011;25081;42.698;23.298;2023-05-02T11:17:16;6.40;;;2.83;;
6095;SDS011;25081;42.698;23.298;2023-05-02T11:19:27;3.90;;;3.03;;
6095;SDS011;25081;42.698;23.298;2023-05-02T11:21:37;2.73;;;1.80;;
6095;SDS011;25081;42.698;23.298;2023-05-02T11:23:48;4.13;;;3.03;;
6095;SDS011;25081;42.698;23.298;2023-05-02T11:25:59;3.43;;;2.20;;
6095;SDS011;25081;42.698;23.298;2023-05-02T11:30:48;6.33;;;2.53;;
6095;SDS011;25081;42.698;23.298;2023-05-02T11:33:11;3.60;;;3.00;;
6095;SDS011;25081;42.698;23.298;2023-05-02T11:35:25;3.93;;;2.77;;
6095;SDS011;25081;42.698;23.298;2023-05-02T11:37:35;6.07;;;2.50;;
6095;SDS011;25081;42.698;23.298;2023-05-02T11:39:46;5.10;;;2.90;;
6095;SDS011;25081;42.698;23.298;2023-05-02T11:41:57;3.97;;;3.00;;
6095;SDS011;25081;42.698;23.298;2023-05-02T11:44:07;4.10;;;2.93;;
6095;SDS011;25081;42.698;23.298;2023-05-02T11:46:18;7.10;;;2.70;;
6095;SDS011;25081;42.698;23.298;2023-05-02T11:48:28;3.70;;;2.43;;
6095;SDS011;25081;42.698;23.298;2023-05-02T11:50:42;4.83;;;3.00;;
6095;SDS011;25081;42.698;23.298;2023-05-02T11:52:52;3.20;;;2.70;;
6095;SDS011;25081;42.698;23.298;2023-05-02T11:55:03;4.67;;;3.17;;
6095;SDS011;25081;42.698;23.298;2023-05-02T11:57:14;9.13;;;3.00;;
6095;SDS011;25081;42.698;23.298;2023-05-02T11:59:25;5.00;;;2.50;;
6095;SDS011;25081;42.698;23.298;2023-05-02T12:01:36;2.63;;;1.90;;
6095;SDS011;25081;42.698;23.298;2023-05-02T12:03:47;3.33;;;2.50;;
6095;SDS011;25081;42.698;23.298;2023-05-02T12:06:06;4.00;;;3.13;;
6095;SDS011;25081;42.698;23.298;2023-05-02T12:08:17;3.07;;;2.47;;
6095;SDS011;25081;42.698;23.298;2023-05-02T12:10:37;7.00;;;2.37;;
6095;SDS011;25081;42.698;23.298;2023-05-02T12:12:48;7.53;;;3.40;;
6095;SDS011;25081;42.698;23.298;2023-05-02T12:15:00;4.67;;;3.27;;
6095;SDS011;25081;42.698;23.298;2023-05-02T12:17:11;4.37;;;2.97;;
6095;SDS011;25081;42.698;23.298;2023-05-02T12:19:22;4.90;;;2.37;;
6095;SDS011;25081;42.698;23.298;2023-05-02T12:21:32;3.30;;;2.13;;
6095;SDS011;25081;42.698;23.298;2023-05-02T12:23:43;4.67;;;2.73;;
6095;SDS011;25081;42.698;23.298;2023-05-02T12:25:54;3.30;;;2.60;;
6095;SDS011;25081;42.698;23.298;2023-05-02T12:28:04;8.40;;;3.10;;
6095;SDS011;25081;42.698;23.298;2023-05-02T12:30:25;3.50;;;2.80;;
6095;SDS011;25081;42.698;23.298;2023-05-02T12:32:35;3.90;;;2.83;;
6095;SDS011;25081;42.698;23.298;2023-05-02T12:34:46;2.43;;;2.00;;
6095;SDS011;25081;42.698;23.298;2023-05-02T12:36:56;3.17;;;2.07;;
6095;SDS011;25081;42.698;23.298;2023-05-02T12:39:08;6.87;;;2.90;;
6095;SDS011;25081;42.698;23.298;2023-05-02T12:41:19;7.60;;;4.20;;
6095;SDS011;25081;42.698;23.298;2023-05-02T12:43:45;2.13;;;1.57;;
6095;SDS011;25081;42.698;23.298;2023-05-02T12:46:08;4.87;;;2.60;;
6095;SDS011;25081;42.698;23.298;2023-05-02T12:48:33;4.93;;;2.37;;
6095;SDS011;25081;42.698;23.298;2023-05-02T12:50:44;3.20;;;2.37;;
6095;SDS011;25081;42.698;23.298;2023-05-02T12:52:54;5.53;;;2.30;;
6095;SDS011;25081;42.698;23.298;2023-05-02T12:55:17;2.50;;;1.97;;
6095;SDS011;25081;42.698;23.298;2023-05-02T12:57:28;3.27;;;2.43;;
6095;SDS011;25081;42.698;23.298;2023-05-02T12:59:39;3.03;;;2.30;;
6095;SDS011;25081;42.698;23.298;2023-05-02T13:01:49;5.97;;;2.50;;
6095;SDS011;25081;42.698;23.298;2023-05-02T13:04:00;5.20;;;2.60;;
6095;SDS011;25081;42.698;23.298;2023-05-02T13:06:10;4.90;;;2.17;;
6095;SDS011;25081;42.698;23.298;2023-05-02T13:08:21;3.23;;;1.90;;
6095;SDS011;25081;42.698;23.298;2023-05-02T13:10:32;3.47;;;2.30;;
6095;SDS011;25081;42.698;23.298;2023-05-02T13:12:42;2.97;;;1.83;;
6095;SDS011;25081;42.698;23.298;2023-05-02T13:14:53;3.03;;;1.90;;
6095;SDS011;25081;42.698;23.298;2023-05-02T13:17:03;2.30;;;1.80;;